Capo Carbonara, Italy

12:28 AM CET on December 08, 2016 (GMT +0100)
Maracalagonis - Geremeas - Geremeas Country Club | | Change Station

Elev 0 ft 39.16 °N, 9.39 °E | Updated 13 minutes ago

Scattered Clouds
Scattered Clouds
61.9 °F
Feels Like 61.9 °F
N
0.0
Wind Variable Wind from North
Gusts 1.2 mph

Today
High -- | Low -- °F
--% Chance of Precip.
Yesterday
High -- | Low -- °F
Precip. -- in
Pressure 30.45 in
Visibility 6.2 miles
Clouds Scattered Clouds 5000 ft
Dew Point 54 °F
Humidity 75%
Rainfall 0.00 in
Snow Depth Not available.
7:28 AM 4:59 PM
First Quarter, 57% visible
METAR LIEE 072320Z 08004KT 040V100 9999 SCT050 15/11 Q1031
Pressure 30.45 in
Visibility 6.2 miles
Clouds Scattered Clouds 5000 ft
Dew Point 54 °F
Humidity 75%
Rainfall 0.00 in
Snow Depth Not available.
7:28 AM 4:59 PM
First Quarter, 57% visible
METAR LIEE 072320Z 08004KT 040V100 9999 SCT050 15/11 Q1031

10-Day Weather Forecast

×

Almanac

Astronomy

Dec. 08, 2016 Rise Set
Actual Time
Civil Twilight
Nautical Twilight
Astronomical Twilight
Moon
Length of Visible Light
Length of Day
Tomorrow will be .
, % of the Moon is Illuminated

Today's Extremes

Country Highs Country Lows

Community

WunderPhotos

Upload Photos

1,956,199 photos uploaded!

WunderBlog® & News

Nearby

Air Quality

  Air Quality AQ Index Pollutant
Not available.

Snow Depth

Station Depth Elevation

Earthquake Activity

City Distance Mag. Time & Date
Minimum magnitude displayed is 2.5.

Coastal Water Temperatures

Place Temperature

Stations

Nearby Weather Stations

Station Location Temp. Windchill Dew Point Humidity Wind Precip. Elev Updated Type